Miscellaneous Local Product
Issued by NWS

Home | Current Version | Previous Version | Text Only | Print | Product List | Glossary On
Versions: 1 2 3 4 5 6 7 8 9 10 11 12 13 14 15 16 17 18 19 20 21 22 23 24 25 26 27 28 29 30 31 32 33 34 35 36 37 38 39 40 41 42 43 44 45 46 47 48 49 50
000
AXUS44 KLUB 200333
MISWTM
METAR KAD1 200325Z 19013KT M05/M07 A2979 RMK A01 SLP091 T10591077 RH 86%=
METAR KAHS 200325Z 30002KT M02/M03 A2995 RMK A01 SLP151 T10281039 RH 92%=
METAR KAI1 200325Z 14003KT M02/M04 A2989 RMK A01 SLP128 T10291044 RH 89%=
METAR KAM1 200325Z 16008KT M03/M04 A2985 RMK A01 SLP112 T10371049 RH 91%=
METAR KAM2 200325Z 12005KT M04/M05 A2984 RMK A01 SLP114 T10441059 RH 89%=
METAR KAM3 200320Z 11009KT M04/M05 A2983 RMK A01 SLP112 T10481055 RH 94%=
METAR KAMH 200325Z 19005KT M03/M06 A2988 RMK A01 SLP122 T10361064 RH 80%=
METAR KANS 200325Z 16006KT M02/M06 A2990 RMK A01 SLP129 T10221062 RH 75%=
METAR KAOS 200325Z 20003KT M05/M09 A2989 RMK A01 SLP131 T10591094 RH 75%=
METAR KARS 200325Z 14003KT M03/M05 A2989 RMK A01 SLP126 T10311058 RH 82%=
METAR KASR 200325Z 28004KT M00/M01 A2995 RMK A01 SLP152 T10041013 RH 94%=
METAR KASU 200325Z 31006KT 00/M01 A2997 RMK A01 SLP155 T00061015 RH 85%=
METAR KBI1 200325Z 05004KT M00/M03 A2995 RMK A01 SLP145 T10091032 RH 84%=
METAR KBO1 200325Z 20014KT M04/M07 A2981 RMK A01 SLP091 T10411070 RH 80%=
METAR KBR1 200325Z 11005KT M07/M09 A2978 RMK A01 SLP095 T10791094 RH 89%=
METAR KBWS 200325Z 17002KT M02/M06 A2991 RMK A01 SLP131 T10291069 RH 74%=
METAR KBY1 200325Z 14003KT M06/M07 A2985 RMK A01 SLP122 T10631078 RH 88%=
METAR KCA1 200325Z 14003KT M03/M03 A2987 RMK A01 SLP129 T10371038 RH 99%=
METAR KCES 200325Z 22007KT M02/M05 A2990 RMK A01 SLP136 T10281053 RH 83%=
METAR KCH1 200325Z 34003KT 00/M00 A2996 RMK A01 SLP153 T00001007 RH 94%=
METAR KCL1 200325Z 18004KT M04/M05 A2986 RMK A01 SLP118 T10401057 RH 88%=
METAR KCL2 200325Z 29005KT M00/M00 A2995 RMK A01 SLP148 T10011003 RH 98%=
METAR KCO1 200325Z 20006KT M00/M06 A2996 RMK A01 SLP150 T10001066 RH 60%=
METAR KCO2 200325Z 22001KT M00/M02 A2996 RMK A01 SLP153 T10021022 RH 86%=
METAR KCR1 200325Z 32005KT M00/M00 A2996 RMK A01 SLP153 T10041007 RH 97%=
METAR KCR2 200325Z 13005KT M00/M04 A2994 RMK A01 SLP143 T10001043 RH 72%=
METAR KCXS 200325Z 26003KT M02/M03 A2994 RMK A01 SLP149 T10251034 RH 94%=
METAR KDC1 200325Z 26014KT 03/M09 A2996 RMK A01 SLP132 T00361099 RH 36%=
METAR KDMS 200325Z 18008KT M03/M05 A2985 RMK A01 SLP110 T10331054 RH 85%=
METAR KDO1 200325Z 20005KT M02/M03 A2994 RMK A01 SLP148 T10241032 RH 94%=
METAR KDR1 200325Z 27007KT M03/M07 A2988 RMK A01 SLP111 T10301074 RH 71%=
METAR KDVS 200325Z 17007KT M04/M07 A2987 RMK A01 SLP118 T10431074 RH 78%=
METAR KEA1 200325Z 18008KT M03/M06 A2988 RMK A01 SLP119 T10321066 RH 77%=
METAR KEN1 200325Z 18010KT M03/M06 A2981 RMK A01 SLP095 T10351069 RH 77%=
METAR KES1 200325Z 24002KT M01/M03 A2995 RMK A01 SLP151 T10121031 RH 86%=
METAR KFAS 200325Z 19007KT M03/M05 A2984 RMK A01 SLP105 T10331058 RH 82%=
METAR KFL1 200325Z 29010KT M12/M14 A2972 RMK A01 SLP979 T11201141 RH 84%=
METAR KFLS 200325Z 19001KT M02/M04 A2989 RMK A01 SLP127 T10261042 RH 89%=
METAR KFR1 200325Z 15007KT M04/M06 A2986 RMK A01 SLP124 T10471064 RH 87%=
METAR KFVS 200325Z 19003KT M04/M06 A2992 RMK A01 SLP144 T10481063 RH 89%=
METAR KGDS 200325Z 32002KT M01/M02 A2993 RMK A01 SLP147 T10141023 RH 93%=
METAR KGGS 200325Z 16002KT M04/M06 A2993 RMK A01 SLP146 T10401060 RH 85%=
METAR KGHS 200325Z 15004KT M03/M04 A2992 RMK A01 SLP140 T10321045 RH 90%=
METAR KGO1 200325Z 21006KT M03/M05 A2989 RMK A01 SLP132 T10321057 RH 83%=
METAR KGU1 200325Z 26018KT M00/M11 A2986 RMK A01 SLP071 T10021118 RH 40%=
METAR KHA1 200325Z 30002KT 00/M01 A2995 RMK A01 SLP149 T00011013 RH 90%=
METAR KHA2 200325Z 16007KT M03/M04 A2986 RMK A01 SLP115 T10351045 RH 92%=
METAR KHA3 200325Z 29002KT M00/M01 A2994 RMK A01 SLP149 T10091014 RH 96%=
METAR KHES 200325Z 17007KT M03/M06 A2983 RMK A01 SLP102 T10331062 RH 80%=
METAR KHO1 200325Z 19006KT M02/M07 A2991 RMK A01 SLP126 T10291074 RH 71%=
METAR KHRS 200325Z 16003KT M02/M04 A2985 RMK A01 SLP111 T10291044 RH 90%=
METAR KJTS 200325Z 23004KT M00/M02 A2994 RMK A01 SLP147 T10091026 RH 88%=
METAR KJU1 200325Z 35006KT 03/02 A2997 RMK A01 SLP152 T00340020 RH 90%=
METAR KKN1 200325Z 24001KT 00/M00 A2995 RMK A01 SLP152 T00021002 RH 98%=
METAR KLA1 200325Z 36006KT 02/M02 A2996 RMK A01 SLP147 T00281022 RH 68%=
METAR KLBW 200325Z 14003KT M03/M05 A2989 RMK A01 SLP128 T10351051 RH 88%=
METAR KLD1 200325Z 17004KT M05/M08 A2989 RMK A01 SLP127 T10591088 RH 80%=
METAR KLE1 200325Z 23004KT M01/M04 A2994 RMK A01 SLP150 T10131043 RH 80%=
METAR KLES 200325Z 12004KT M03/M06 A2991 RMK A01 SLP137 T10361067 RH 79%=
METAR KLO1 200325Z 15005KT M03/M05 A2994 RMK A01 SLP149 T10311058 RH 81%=
METAR KMC1 200325Z 33005KT 01/01 A2996 RMK A01 SLP148 T00130011 RH 98%=
METAR KMC4 200325Z 06000KT 00/M03 A2996 RMK A01 SLP150 T00071037 RH 71%=
METAR KMCS 200325Z 21007KT M03/M05 A2989 RMK A01 SLP131 T10371051 RH 90%=
METAR KMD1 200325Z 33004KT 01/01 A2996 RMK A01 SLP150 T00150010 RH 96%=
METAR KME1 200325Z 35001KT M00/M00 A2997 RMK A01 SLP156 T10011006 RH 96%=
METAR KMES 200325Z 19002KT M01/M03 A2994 RMK A01 SLP150 T10161030 RH 91%=
METAR KMNS 200325Z 19003KT M04/M08 A2987 RMK A01 SLP119 T10471087 RH 73%=
METAR KMUS 200325Z 17007KT M03/M06 A2987 RMK A01 SLP116 T10391062 RH 84%=
METAR KNH1 200325Z 15003KT M03/M06 A2991 RMK A01 SLP134 T10371063 RH 81%=
METAR KNOR 200325Z 25004KT M01/M03 A2995 RMK A01 SLP151 T10111036 RH 83%=
METAR KOD1 200325Z 28003KT M00/M00 A2996 RMK A01 SLP153 T10011007 RH 95%=
METAR KOES 200325Z 12004KT M03/M07 A2991 RMK A01 SLP135 T10381070 RH 78%=
METAR KONS 200325Z 15005KT M04/M06 A2988 RMK A01 SLP123 T10461069 RH 85%=
METAR KPA1 200325Z 19007KT M04/M05 A2986 RMK A01 SLP121 T10411056 RH 89%=
METAR KPAD 200325Z 27000KT M01/M02 A2992 RMK A01 SLP143 T10141020 RH 96%=
METAR KPD1 200325Z 16006KT M03/M05 A2986 RMK A01 SLP119 T10361056 RH 85%=
METAR KPD2 200325Z 13005KT M02/M05 A2988 RMK A01 SLP128 T10201052 RH 78%=
METAR KPD3 200325Z 19004KT M02/M05 A2992 RMK A01 SLP143 T10221052 RH 80%=
METAR KPFS 200325Z 26004KT M01/M02 A2993 RMK A01 SLP144 T10111026 RH 89%=
METAR KPG1 200325Z 03009KT 06/M03 A2991 RMK A01 SLP116 T00671036 RH 47%=
METAR KPMS 200325Z 20007KT M03/M04 A2988 RMK A01 SLP128 T10391046 RH 95%=
METAR KPPS 200325Z 15004KT M04/M07 A2988 RMK A01 SLP119 T10411076 RH 76%=
METAR KPT1 200325Z 19002KT M02/M04 A2993 RMK A01 SLP145 T10291041 RH 92%=
METAR KPVS 200325Z 15004KT M02/M03 A2987 RMK A01 SLP119 T10271036 RH 94%=
METAR KQU1 200325Z 20003KT M02/M04 A2993 RMK A01 SLP144 T10201043 RH 84%=
METAR KREE 200325Z 22002KT M04/M08 A2990 RMK A01 SLP130 T10401081 RH 74%=
METAR KRLS 200325Z 20001KT M02/M05 A2991 RMK A01 SLP135 T10241056 RH 78%=
METAR KRO1 200325Z 27004KT M00/M02 A2995 RMK A01 SLP151 T10071023 RH 89%=
METAR KRRS 200325Z 24003KT M02/M03 A2993 RMK A01 SLP144 T10221030 RH 94%=
METAR KSB1 200325Z 30014KT 02/M07 A2997 RMK A01 SLP119 T00291070 RH 47%=
METAR KSC1 200325Z 27002KT M03/M04 A2996 RMK A01 SLP155 T10361045 RH 93%=
METAR KSDS 200325Z 17003KT M05/M07 A2988 RMK A01 SLP121 T10501077 RH 81%=
METAR KSE1 200325Z 29004KT 00/00 A2995 RMK A01 SLP152 T00090003 RH 96%=
METAR KSGV 200325Z 16003KT M04/M07 A2989 RMK A01 SLP128 T10411074 RH 77%=
METAR KSLS 200325Z 17005KT M04/M06 A2990 RMK A01 SLP136 T10471066 RH 87%=
METAR KSM1 200325Z 16004KT M03/M06 A2989 RMK A01 SLP128 T10391067 RH 81%=
METAR KSP1 200325Z 26003KT M01/M02 A2994 RMK A01 SLP148 T10101024 RH 90%=
METAR KSP2 200325Z 22002KT M03/M04 A2989 RMK A01 SLP130 T10311042 RH 91%=
METAR KST1 200325Z 06004KT M02/M05 A2993 RMK A01 SLP141 T10231050 RH 82%=
METAR KST2 200325Z 29003KT 00/M00 A2997 RMK A01 SLP156 T00061002 RH 94%=
METAR KST3 200325Z 17004KT M05/M06 A2986 RMK A01 SLP125 T10561062 RH 95%=
METAR KSVS 200325Z 21005KT M03/M04 A2990 RMK A01 SLP132 T10311042 RH 92%=
METAR KSW1 200325Z 30001KT M01/M02 A2994 RMK A01 SLP147 T10131021 RH 94%=
METAR KSYS 200325Z 23002KT M01/M02 A2993 RMK A01 SLP142 T10121020 RH 94%=
METAR KTA1 200325Z 11003KT M03/M06 A2992 RMK A01 SLP140 T10301065 RH 76%=
METAR KTAS 200325Z 24006KT M04/M06 A2990 RMK A01 SLP133 T10421068 RH 81%=
METAR KTAT 200325Z 17003KT M06/M08 A2987 RMK A01 SLP117 T10611088 RH 81%=
METAR KTH1 200325Z 31007KT 01/01 A2996 RMK A01 SLP153 T00140010 RH 96%=
METAR KTIS 200325Z 17006KT M03/M04 A2986 RMK A01 SLP118 T10301049 RH 87%=
METAR KTUR 200325Z 22008KT M01/M04 A2993 RMK A01 SLP145 T10141049 RH 77%=
METAR KUM1 200325Z 18008KT M03/M05 A2984 RMK A01 SLP106 T10361053 RH 88%=
METAR KVA1 200325Z 28012G21KT 04/M08 A2994 RMK A01 SLP120 T00491081 RH 38%=
METAR KVP1 200325Z 17005KT M03/M04 A2988 RMK A01 SLP124 T10371048 RH 91%=
METAR KWA1 200325Z 31007KT 01/00 A2998 RMK A01 SLP160 T00100000 RH 93%=
METAR KWE1 200325Z 32003KT 00/M01 A2995 RMK A01 SLP152 T00041010 RH 90%=
METAR KWE2 200325Z 17004KT M04/M08 A2991 RMK A01 SLP137 T10461087 RH 72%=
METAR KWOS 200325Z 17004KT M04/M07 A2990 RMK A01 SLP131 T10441074 RH 79%=
METAR KWT1 200325Z 22003KT M01/M02 A2994 RMK A01 SLP147 T10101028 RH 87%=
METAR KWVS 200325Z 19002KT M02/M03 A2992 RMK A01 SLP141 T10241039 RH 90%=

$$


USA.gov is the U.S. government's official web portal to all federal, state and local government web resources and services.